createdAt,value
2023-01-12T00:04:41.785Z,9.25
2023-01-12T00:09:46.383Z,9.31
2023-01-12T00:14:49.500Z,9.27
2023-01-12T00:19:54.407Z,9.37
2023-01-12T00:24:59.473Z,9.37
2023-01-12T00:30:02.533Z,9.42
2023-01-12T00:35:06.304Z,9.45
2023-01-12T00:40:13.275Z,9.45
2023-01-12T00:45:23.158Z,9.45
2023-01-12T00:50:26.532Z,9.40
2023-01-12T00:55:31.541Z,9.23
2023-01-12T01:00:34.738Z,9.12
2023-01-12T01:05:37.752Z,9.10
2023-01-12T01:10:42.089Z,9.12
2023-01-12T01:15:45.158Z,9.17
2023-01-12T01:20:48.932Z,9.20
2023-01-12T01:25:53.746Z,9.20
2023-01-12T01:31:04.593Z,9.20
2023-01-12T01:36:08.044Z,9.20
2023-01-12T01:41:19.605Z,9.24
2023-01-12T01:46:41.958Z,9.22
2023-01-12T01:51:45.417Z,9.17
2023-01-12T01:56:50.169Z,9.23
2023-01-12T02:01:54.103Z,9.26
2023-01-12T02:06:57.719Z,9.35
2023-01-12T02:12:20.572Z,9.37
2023-01-12T02:17:30.585Z,9.36
2023-01-12T02:22:54.329Z,9.36
2023-01-12T02:28:11.935Z,9.39
2023-01-12T02:33:27.559Z,9.46
2023-01-12T02:38:37.097Z,9.46
2023-01-12T02:43:40.424Z,9.48
2023-01-12T02:48:52.681Z,9.50
2023-01-12T02:53:59.957Z,9.49
2023-01-12T02:59:06.273Z,9.45
2023-01-12T03:04:14.052Z,9.40
2023-01-12T03:09:18.459Z,9.33
2023-01-12T03:14:23.337Z,9.11
2023-01-12T03:19:30.168Z,8.92
2023-01-12T03:24:37.295Z,8.80
2023-01-12T03:29:42.535Z,8.77
2023-01-12T03:34:47.404Z,8.82
2023-01-12T03:39:53.526Z,8.86
2023-01-12T03:45:03.605Z,8.90
2023-01-12T03:50:11.192Z,8.90
2023-01-12T03:55:19.720Z,8.88
2023-01-12T04:00:24.763Z,8.86
2023-01-12T04:05:29.373Z,8.84
2023-01-12T04:10:32.855Z,8.90
2023-01-12T04:15:38.535Z,8.96
2023-01-12T04:20:57.423Z,8.97
2023-01-12T04:26:00.747Z,9.00
2023-01-12T04:31:04.385Z,9.00
2023-01-12T04:36:11.321Z,9.00
2023-01-12T04:41:14.370Z,8.99
2023-01-12T04:46:17.740Z,8.99
2023-01-12T04:51:22.213Z,8.98
2023-01-12T04:56:25.570Z,9.05
2023-01-12T05:01:32.133Z,9.11
2023-01-12T05:06:36.633Z,9.25
2023-01-12T05:11:39.675Z,9.37
2023-01-12T05:16:42.901Z,9.56
2023-01-12T05:21:47.291Z,9.59
2023-01-12T05:26:50.341Z,9.70
2023-01-12T05:31:53.644Z,9.77
2023-01-12T05:36:58.068Z,9.82
2023-01-12T05:42:21.428Z,9.86
2023-01-12T05:47:24.692Z,9.87
2023-01-12T05:52:29.158Z,9.93
2023-01-12T05:57:32.503Z,10.04
2023-01-12T06:02:35.637Z,10.09
2023-01-12T06:07:40.148Z,10.07
2023-01-12T06:13:00.684Z,10.17
2023-01-12T06:18:03.606Z,10.22
2023-01-12T06:23:08.212Z,10.22
2023-01-12T06:28:13.904Z,10.23
2023-01-12T06:33:17.104Z,10.22
2023-01-12T06:38:23.211Z,10.28
2023-01-12T06:43:26.323Z,10.27
2023-01-12T06:48:39.154Z,10.29
2023-01-12T06:53:45.693Z,10.32
2023-01-12T06:58:48.814Z,10.35
2023-01-12T07:03:51.974Z,10.37
2023-01-12T07:08:56.509Z,10.40
2023-01-12T07:13:59.671Z,10.43
2023-01-12T07:19:02.939Z,10.47
2023-01-12T07:24:07.986Z,10.52
2023-01-12T07:29:12.142Z,10.54
2023-01-12T07:34:15.353Z,10.59
2023-01-12T07:39:19.942Z,10.66
2023-01-12T07:44:22.984Z,10.69
2023-01-12T07:49:26.213Z,10.76
2023-01-12T07:54:33.740Z,10.77
2023-01-12T07:59:41.218Z,10.77
2023-01-12T08:04:44.949Z,10.87
2023-01-12T08:09:49.687Z,10.87
2023-01-12T08:14:52.876Z,10.88
2023-01-12T08:20:02.164Z,10.88
2023-01-12T08:25:08.770Z,10.92
2023-01-12T08:30:16.017Z,10.98
2023-01-12T08:35:23.083Z,11.03
2023-01-12T08:40:42.116Z,11.07
2023-01-12T08:45:45.379Z,11.05
2023-01-12T08:50:48.541Z,10.98
2023-01-12T08:55:54.887Z,10.92
2023-01-12T09:00:58.114Z,10.88
2023-01-12T09:06:12.327Z,10.89
2023-01-12T09:16:54.587Z,10.85
2023-01-12T09:21:58.106Z,10.83
2023-01-12T09:27:05.395Z,10.98
2023-01-12T09:32:08.912Z,11.03
2023-01-12T09:37:14.355Z,11.08
2023-01-12T09:42:38.010Z,11.12
2023-01-12T09:47:46.368Z,11.09
2023-01-12T09:52:53.559Z,11.22
2023-01-12T09:58:13.252Z,11.27
2023-01-12T10:03:26.391Z,11.28
2023-01-12T10:08:33.176Z,11.31
2023-01-12T10:13:55.686Z,11.30
2023-01-12T10:19:00.692Z,11.29
2023-01-12T10:24:03.935Z,11.25
2023-01-12T10:29:10.523Z,11.30
2023-01-12T10:34:13.905Z,11.33
2023-01-12T10:39:36.035Z,11.56
2023-01-12T10:44:43.049Z,11.56
2023-01-12T10:49:46.156Z,11.51
2023-01-12T10:54:49.967Z,11.55
2023-01-12T10:59:56.075Z,11.62
2023-01-12T11:04:59.202Z,11.80
2023-01-12T11:10:20.910Z,11.75
2023-01-12T11:15:25.551Z,11.76
2023-01-12T11:20:35.579Z,11.82
2023-01-12T11:25:41.663Z,11.85
2023-01-12T11:30:51.831Z,11.92
2023-01-12T11:36:01.268Z,11.89
2023-01-12T11:41:05.071Z,11.79
2023-01-12T11:46:18.683Z,11.62
2023-01-12T11:51:23.278Z,11.57
2023-01-12T11:56:50.609Z,11.41
2023-01-12T12:02:01.271Z,11.25
2023-01-12T12:07:18.858Z,11.09
2023-01-12T12:12:28.083Z,11.08
2023-01-12T12:17:41.895Z,11.16
2023-01-12T12:22:55.212Z,11.20
2023-01-12T12:28:10.813Z,11.27
2023-01-12T12:33:23.867Z,11.17
2023-01-12T12:38:33.498Z,11.06
2023-01-12T12:43:54.687Z,10.96
2023-01-12T12:49:03.780Z,10.91
2023-01-12T12:54:08.330Z,10.93
2023-01-12T12:59:54.096Z,10.97
2023-01-12T13:05:05.178Z,10.89
2023-01-12T13:10:22.292Z,10.95
2023-01-12T13:15:33.239Z,10.89
2023-01-12T13:20:55.693Z,10.90
2023-01-12T13:26:00.050Z,10.89
2023-01-12T13:31:03.153Z,10.87
2023-01-12T13:36:10.372Z,10.82
2023-01-12T13:41:42.305Z,10.79
2023-01-12T13:46:47.740Z,10.83
2023-01-12T13:51:58.964Z,10.85
2023-01-12T13:57:03.798Z,10.80
2023-01-12T14:02:18.537Z,10.78
2023-01-12T14:07:38.169Z,10.78
2023-01-12T14:12:52.276Z,10.82
2023-01-12T14:18:06.346Z,10.81
2023-01-12T14:23:19.459Z,10.85
2023-01-12T14:28:26.265Z,10.86
2023-01-12T14:33:32.440Z,10.81
2023-01-12T14:38:37.380Z,10.82
2023-01-12T14:43:57.665Z,10.79
2023-01-12T14:49:02.361Z,10.81
2023-01-12T14:54:20.311Z,10.82
2023-01-12T14:59:25.526Z,10.83
2023-01-12T15:04:31.659Z,10.85
2023-01-12T15:09:53.476Z,10.76
2023-01-12T15:15:19.511Z,10.72
2023-01-12T15:20:40.098Z,10.67
2023-01-12T15:25:45.397Z,10.61
2023-01-12T15:30:51.043Z,10.63
2023-01-12T15:35:56.616Z,10.62
2023-01-12T15:41:00.875Z,10.58
2023-01-12T15:46:03.754Z,10.59
2023-01-12T15:51:06.913Z,10.58
2023-01-12T15:56:12.619Z,10.52
2023-01-12T16:01:17.298Z,10.49
2023-01-12T16:06:20.550Z,10.52
2023-01-12T16:11:25.321Z,10.57
2023-01-12T16:16:29.966Z,10.60
2023-01-12T16:21:33.659Z,10.61
2023-01-12T16:26:37.904Z,10.67
2023-01-12T16:31:40.887Z,10.66
2023-01-12T16:36:43.907Z,10.69
2023-01-12T16:41:48.461Z,10.70
2023-01-12T16:46:52.105Z,10.59
2023-01-12T16:51:55.336Z,10.67
2023-01-12T16:56:59.621Z,10.68
2023-01-12T17:02:09.028Z,10.65
2023-01-12T17:07:15.693Z,10.65
2023-01-12T17:12:20.676Z,10.62
2023-01-12T17:17:23.665Z,10.63
2023-01-12T17:22:26.879Z,10.64
2023-01-12T17:27:31.271Z,10.70
2023-01-12T17:32:34.196Z,10.75
2023-01-12T17:37:37.489Z,10.68
2023-01-12T17:42:59.092Z,10.77
2023-01-12T17:48:02.065Z,10.81
2023-01-12T17:53:09.151Z,10.84
2023-01-12T17:58:13.391Z,10.84
2023-01-12T18:03:16.342Z,10.81
2023-01-12T18:08:19.307Z,10.83
2023-01-12T18:13:24.357Z,10.81
2023-01-12T18:18:29.031Z,10.80
2023-01-12T18:23:32.222Z,10.82
2023-01-12T18:28:36.576Z,10.81
2023-01-12T18:33:40.005Z,10.82
2023-01-12T18:38:42.891Z,10.78
2023-01-12T18:43:49.120Z,10.73
2023-01-12T18:48:53.753Z,10.77
2023-01-12T18:53:58.475Z,10.75
2023-01-12T18:59:08.362Z,10.74
2023-01-12T19:04:15.558Z,10.81
2023-01-12T19:09:41.011Z,10.86
2023-01-12T19:15:18.195Z,10.89
2023-01-12T19:20:22.749Z,10.91
2023-01-12T19:25:44.070Z,10.92
2023-01-12T19:30:50.050Z,10.93
2023-01-12T19:35:56.742Z,10.91
2023-01-12T19:41:37.640Z,10.85
2023-01-12T19:46:49.375Z,10.83
2023-01-12T19:51:53.361Z,10.80
2023-01-12T19:56:57.190Z,10.78
2023-01-12T20:02:02.312Z,10.76
2023-01-12T20:07:05.241Z,10.76
2023-01-12T20:12:08.479Z,10.80
2023-01-12T20:17:12.761Z,10.74
2023-01-12T20:22:16.621Z,10.72
2023-01-12T20:27:20.219Z,10.78
2023-01-12T20:32:25.500Z,10.69
2023-01-12T20:37:28.593Z,10.61
2023-01-12T20:42:31.852Z,10.51
2023-01-12T20:47:36.185Z,10.57
2023-01-12T20:52:39.091Z,10.47
2023-01-12T20:57:41.905Z,10.40
2023-01-12T21:02:46.074Z,10.23
2023-01-12T21:07:52.041Z,10.14
2023-01-12T21:12:57.040Z,10.06
2023-01-12T21:18:01.273Z,10.03
2023-01-12T21:23:05.860Z,9.81
2023-01-12T21:28:12.176Z,9.88
2023-01-12T21:33:17.637Z,9.82
2023-01-12T21:38:20.443Z,9.80
2023-01-12T21:43:23.503Z,9.64
2023-01-12T21:48:27.670Z,9.61
2023-01-12T21:53:30.523Z,9.55
2023-01-12T21:58:35.838Z,9.41
2023-01-12T22:03:40.349Z,9.36
2023-01-12T22:08:43.654Z,9.29
2023-01-12T22:13:46.580Z,9.16
2023-01-12T22:18:52.281Z,9.05
2023-01-12T22:23:55.345Z,9.03
2023-01-12T22:28:58.196Z,8.92
2023-01-12T22:34:03.918Z,8.86
2023-01-12T22:39:06.906Z,8.84
2023-01-12T22:44:09.915Z,8.84
2023-01-12T22:49:16.094Z,8.70
2023-01-12T22:54:19.130Z,8.67
2023-01-12T22:59:22.258Z,8.64
2023-01-12T23:04:26.676Z,8.64
2023-01-12T23:09:29.540Z,8.55
2023-01-12T23:14:32.496Z,8.76
2023-01-12T23:19:36.653Z,8.66
2023-01-12T23:24:39.397Z,8.57
2023-01-12T23:29:42.588Z,8.48
2023-01-12T23:34:46.727Z,8.50
2023-01-12T23:39:49.524Z,8.42
2023-01-12T23:44:52.282Z,8.39
2023-01-12T23:49:57.310Z,8.50
2023-01-12T23:55:00.109Z,8.46
